Time;durP1;ratioP1;P1;durP2;ratioP2;P2;SDS_P1;SDS_P2;PMS_P1;PMS_P2;Temp;Humidity;BMP_temperature;BMP_pressure;BME280_temperature;BME280_humidity;BME280_pressure;Samples;Min_cycle;Max_cycle;Signal;HPM_P1;HPM_P2
2022/04/29 00:03:53;;;;;;;3.60;1.58;;;11.70;65.00;;;;;;8379990;28;20049;-66
2022/04/29 00:07:55;;;;;;;3.47;1.55;;;11.60;64.90;;;;;;8380839;28;20056;-66
2022/04/29 00:11:57;;;;;;;3.90;1.50;;;11.50;64.80;;;;;;8382379;28;20044;-66
2022/04/29 00:16:00;;;;;;;3.10;1.42;;;11.40;64.40;;;;;;8387877;28;20040;-66
2022/04/29 00:20:02;;;;;;;4.50;1.50;;;11.40;65.00;;;;;;8392743;28;20082;-66
2022/04/29 00:24:04;;;;;;;3.80;1.50;;;11.30;64.60;;;;;;8397518;28;20040;-66
2022/04/29 00:28:07;;;;;;;3.58;1.27;;;11.20;65.30;;;;;;8393387;28;20044;-66
2022/04/29 00:32:09;;;;;;;4.40;1.60;;;11.10;65.10;;;;;;8384947;28;20049;-66
2022/04/29 00:36:11;;;;;;;6.03;1.80;;;11.10;64.30;;;;;;8385033;28;20041;-66
2022/04/29 00:40:18;;;;;;;3.65;1.50;;;11.00;64.60;;;;;;8400065;28;20048;-66
2022/04/29 00:44:19;;;;;;;3.25;1.48;;;11.00;64.50;;;;;;8392425;28;20049;-66
2022/04/29 00:48:21;;;;;;;3.13;1.42;;;10.90;64.80;;;;;;8389847;28;20447;-66
2022/04/29 00:52:24;;;;;;;4.85;1.50;;;10.80;65.20;;;;;;8387996;28;20412;-66
2022/04/29 00:56:29;;;;;;;3.28;1.40;;;10.80;65.20;;;;;;8382820;28;20436;-66
2022/04/29 01:00:31;;;;;;;3.45;1.70;;;10.70;64.90;;;;;;8385225;28;20049;-66
2022/04/29 01:04:42;;;;;;;3.65;1.40;;;10.70;65.30;;;;;;8391205;28;20522;-66
2022/04/29 01:08:43;;;;;;;3.45;1.50;;;10.60;65.10;;;;;;8376689;28;20049;-66
2022/04/29 01:12:47;;;;;;;3.97;1.80;;;10.60;65.50;;;;;;8379064;28;20048;-66
2022/04/29 01:16:49;;;;;;;4.50;1.55;;;10.60;65.60;;;;;;8378702;28;20055;-66
2022/04/29 01:21:01;;;;;;;;;;;10.50;65.40;;;;;;8382622;28;19925;-66
2022/04/29 01:25:03;;;;;;;;;;;10.50;65.50;;;;;;8385363;28;20095;-66
2022/04/29 01:29:06;;;;;;;;;;;10.40;66.00;;;;;;8389310;28;19925;-66
2022/04/29 01:33:09;;;;;;;;;;;10.40;66.10;;;;;;8392129;28;20409;-66
2022/04/29 01:37:10;;;;;;;;;;;10.30;65.60;;;;;;8390434;28;19927;-66
2022/04/29 01:41:13;;;;;;;;;;;10.30;66.00;;;;;;8380719;28;19924;-66
2022/04/29 01:45:14;;;;;;;;;;;10.30;66.20;;;;;;8385889;28;20254;-66
2022/04/29 01:49:16;;;;;;;;;;;10.30;66.40;;;;;;8391027;28;20273;-66
2022/04/29 01:53:18;;;;;;;;;;;10.20;66.00;;;;;;8381399;28;20284;-66
2022/04/29 01:57:20;;;;;;;4.53;2.10;;;10.10;65.90;;;;;;8386188;28;19921;-66
2022/04/29 02:01:22;;;;;;;4.43;1.88;;;10.10;66.30;;;;;;8385402;28;20512;-66
2022/04/29 02:05:24;;;;;;;4.38;1.60;;;10.00;66.10;;;;;;8383644;28;20106;-66
2022/04/29 02:09:26;;;;;;;7.40;2.10;;;10.00;67.00;;;;;;8381727;28;20049;-66
2022/04/29 02:13:28;;;;;;;4.65;1.75;;;10.00;67.10;;;;;;8387316;28;20044;-66
2022/04/29 02:17:30;;;;;;;3.90;1.70;;;9.90;68.50;;;;;;8389436;28;20404;-66
2022/04/29 02:21:32;;;;;;;3.72;1.67;;;9.90;67.60;;;;;;8385493;28;20416;-66
2022/04/29 02:25:33;;;;;;;3.72;1.70;;;9.90;67.30;;;;;;8377793;28;20048;-66
2022/04/29 02:29:36;;;;;;;5.18;1.80;;;9.90;67.60;;;;;;8393161;28;20060;-66
2022/04/29 02:33:38;;;;;;;4.20;1.67;;;9.90;67.80;;;;;;8395918;28;20138;-66
2022/04/29 02:37:40;;;;;;;3.60;1.75;;;9.80;68.00;;;;;;8390031;28;20045;-66
2022/04/29 02:41:42;;;;;;;3.95;1.75;;;9.80;68.10;;;;;;8393940;28;20419;-66
2022/04/29 02:45:44;;;;;;;4.43;1.90;;;9.70;68.10;;;;;;8396360;28;20071;-66
2022/04/29 02:49:49;;;;;;;3.97;1.77;;;9.70;68.00;;;;;;8394019;28;20045;-66
2022/04/29 02:53:51;;;;;;;3.60;1.50;;;9.70;68.10;;;;;;8387314;28;20044;-66
2022/04/29 02:57:53;;;;;;;3.60;1.58;;;9.70;67.80;;;;;;8385159;28;20044;-66
2022/04/29 03:01:54;;;;;;;3.63;1.60;;;9.70;68.00;;;;;;8408175;28;20036;-66
2022/04/29 03:05:56;;;;;;;4.47;1.63;;;9.60;68.50;;;;;;8394888;28;20493;-66
2022/04/29 03:09:58;;;;;;;4.60;1.70;;;9.60;68.70;;;;;;8381232;28;20041;-66
2022/04/29 03:14:00;;;;;;;4.28;1.80;;;9.60;68.80;;;;;;8387066;28;20049;-66
2022/04/29 03:22:22;;;;;;;6.57;2.10;;;9.50;69.50;;;;;;8393933;28;19920;-66
2022/04/29 03:26:24;;;;;;;5.47;1.80;;;9.40;69.20;;;;;;8390777;28;20412;-66
2022/04/29 03:30:26;;;;;;;3.95;1.70;;;9.40;69.00;;;;;;8394588;28;20055;-66
2022/04/29 03:34:28;;;;;;;3.80;1.63;;;9.40;69.10;;;;;;8383245;28;20163;-66
2022/04/29 03:38:29;;;;;;;3.88;1.65;;;9.40;68.80;;;;;;8379434;28;20389;-66
2022/04/29 03:42:31;;;;;;;4.70;1.73;;;9.40;68.70;;;;;;8388003;28;20055;-66
2022/04/29 03:46:33;;;;;;;4.25;1.70;;;9.40;69.00;;;;;;8387398;28;20052;-66
2022/04/29 03:50:35;;;;;;;4.65;1.70;;;9.40;68.80;;;;;;8390408;28;20068;-66
2022/04/29 03:54:37;;;;;;;4.20;1.70;;;9.30;68.90;;;;;;8398965;28;20056;-66
2022/04/29 03:58:38;;;;;;;6.45;2.17;;;9.30;69.00;;;;;;8395224;28;20051;-66
2022/04/29 04:02:43;;;;;;;3.70;1.65;;;9.30;68.90;;;;;;8382723;28;20044;-66
2022/04/29 04:06:51;;;;;;;4.35;2.00;;;9.20;69.20;;;;;;8391831;28;20049;-66
2022/04/29 04:10:53;;;;;;;4.35;1.60;;;9.20;69.30;;;;;;8382687;28;20562;-66
2022/04/29 04:14:59;;;;;;;6.03;1.92;;;9.10;69.40;;;;;;8390770;28;20047;-66
2022/04/29 04:19:02;;;;;;;6.07;1.73;;;9.10;69.50;;;;;;8419131;28;20065;-66
2022/04/29 04:23:04;;;;;;;3.83;1.92;;;9.10;69.40;;;;;;8394531;28;20055;-66
2022/04/29 04:27:06;;;;;;;5.57;2.05;;;9.00;69.60;;;;;;8381798;28;20168;-66
2022/04/29 04:31:08;;;;;;;5.32;2.03;;;9.00;69.20;;;;;;8383734;28;20082;-66
2022/04/29 04:35:10;;;;;;;3.83;1.70;;;9.00;69.90;;;;;;8426988;28;20043;-66
2022/04/29 04:39:12;;;;;;;3.83;1.60;;;9.00;70.00;;;;;;8388018;28;20047;-66
2022/04/29 04:43:14;;;;;;;3.70;1.55;;;8.90;69.40;;;;;;8375479;28;20149;-66
2022/04/29 04:47:17;;;;;;;3.55;1.52;;;8.90;69.70;;;;;;8374749;28;20500;-66
2022/04/29 04:51:18;;;;;;;3.70;1.60;;;8.90;70.00;;;;;;8394089;28;20059;-66
2022/04/29 04:55:20;;;;;;;5.00;1.83;;;8.90;70.20;;;;;;8421117;28;20045;-66
2022/04/29 04:59:22;;;;;;;3.60;1.70;;;8.90;70.40;;;;;;8391108;28;20040;-66
2022/04/29 05:03:30;;;;;;;4.15;1.70;;;8.90;70.70;;;;;;8399193;28;20059;-66
2022/04/29 05:07:32;;;;;;;4.82;1.77;;;8.90;70.50;;;;;;8376886;28;20106;-66
2022/04/29 05:11:34;;;;;;;4.22;1.80;;;8.90;70.80;;;;;;8387935;28;20385;-66
2022/04/29 05:15:57;;;;;;;4.88;1.77;;;8.90;70.60;;;;;;8392035;28;20889;-66
2022/04/29 05:19:58;;;;;;;4.45;1.83;;;8.90;71.00;;;;;;8385208;28;20049;-66
2022/04/29 05:24:00;;;;;;;5.03;1.83;;;8.90;70.60;;;;;;8387061;28;20085;-66
2022/04/29 05:28:03;;;;;;;4.45;2.17;;;8.90;71.40;;;;;;8382901;28;20515;-66
2022/04/29 05:32:06;;;;;;;4.22;1.63;;;8.90;70.90;;;;;;8386550;28;20044;-66
2022/04/29 05:36:09;;;;;;;4.50;1.65;;;9.00;71.30;;;;;;8381590;28;20465;-66
2022/04/29 05:44:34;;;;;;;4.25;1.80;;;9.00;71.60;;;;;;8386422;28;20079;-66
2022/04/29 05:48:35;;;;;;;3.78;1.50;;;9.10;72.00;;;;;;8380501;28;20052;-66
2022/04/29 05:52:37;;;;;;;5.47;1.90;;;9.10;72.30;;;;;;8382104;28;20063;-66
2022/04/29 05:56:39;;;;;;;6.50;1.92;;;9.10;72.30;;;;;;8383774;28;20097;-66
2022/04/29 06:00:40;;;;;;;4.90;1.48;;;9.10;72.80;;;;;;8387398;28;20049;-66
2022/04/29 06:04:42;;;;;;;3.35;1.52;;;9.20;73.30;;;;;;8388073;28;20049;-66
2022/04/29 06:08:44;;;;;;;3.55;1.60;;;9.20;72.90;;;;;;8370590;28;20055;-66
2022/04/29 06:12:46;;;;;;;4.70;1.73;;;9.30;73.00;;;;;;8366149;28;20059;-66
2022/04/29 06:16:48;;;;;;;3.80;1.52;;;9.30;73.20;;;;;;8360275;28;20052;-66
2022/04/29 06:20:50;;;;;;;4.47;1.77;;;9.40;73.90;;;;;;8358182;28;20412;-66
2022/04/29 06:24:52;;;;;;;6.83;1.97;;;9.50;74.00;;;;;;8357652;28;20091;-66
2022/04/29 06:29:09;;;;;;;4.22;1.73;;;9.60;74.10;;;;;;8360388;28;20102;-66
2022/04/29 06:33:11;;;;;;;6.78;1.70;;;9.70;75.00;;;;;;8361953;28;20075;-66
2022/04/29 06:37:13;;;;;;;;;;;9.70;74.80;;;;;;8362291;28;20075;-66
2022/04/29 06:41:14;;;;;;;;;;;9.90;75.20;;;;;;8361471;28;20399;-66
2022/04/29 06:45:16;;;;;;;;;;;10.00;74.70;;;;;;8362490;28;19961;-68
2022/04/29 06:49:18;;;;;;;;;;;10.00;74.90;;;;;;8359420;28;19931;-68
2022/04/29 06:53:19;;;;;;;;;;;10.10;75.30;;;;;;8363515;28;20430;-66
2022/04/29 06:57:21;;;;;;;;;;;10.20;75.90;;;;;;8358691;28;19928;-66
2022/04/29 07:01:23;;;;;;;;;;;10.30;75.90;;;;;;8363718;28;19924;-66
2022/04/29 07:05:31;;;;;;;;;;;10.40;76.00;;;;;;8361230;28;20285;-66
2022/04/29 07:09:33;;;;;;;;;;;10.60;76.30;;;;;;8358305;28;19921;-66
2022/04/29 07:13:54;;;;;;;;;;;10.70;78.30;;;;;;8368528;28;19921;-66
2022/04/29 07:17:56;;;;;;;;;;;10.80;77.10;;;;;;8356027;28;19920;-66
2022/04/29 07:21:58;;;;;;;;;;;11.00;77.60;;;;;;8361334;28;19928;-66
2022/04/29 07:25:59;;;;;;;;;;;11.10;77.90;;;;;;8359105;28;19935;-66
2022/04/29 07:30:02;;;;;;;;;;;11.30;78.10;;;;;;8358262;28;20380;-68
2022/04/29 07:34:04;;;;;;;;;;;11.40;77.90;;;;;;8361052;28;19928;-68
2022/04/29 07:42:26;;;;;;;;;;;11.50;78.30;;;;;;8357606;28;19921;-66
2022/04/29 07:46:28;;;;;;;;;;;11.60;78.70;;;;;;8357144;28;19928;-67
2022/04/29 07:50:31;;;;;;;;;;;11.70;79.10;;;;;;8356252;28;20133;-68
2022/04/29 07:54:33;;;;;;;;;;;11.80;78.90;;;;;;8357637;28;19924;-68
2022/04/29 07:58:35;;;;;;;;;;;11.90;78.90;;;;;;8359076;28;19920;-68
2022/04/29 08:02:36;;;;;;;;;;;11.90;79.40;;;;;;8362381;28;20140;-68
2022/04/29 08:06:39;;;;;;;;;;;12.00;79.40;;;;;;8360231;28;20536;-68
2022/04/29 08:11:01;;;;;;;;;;;12.10;79.30;;;;;;8356728;28;20428;-68
2022/04/29 08:15:04;;;;;;;;;;;12.10;79.80;;;;;;8358105;28;19939;-68
2022/04/29 08:19:10;;;;;;;;;;;12.20;79.70;;;;;;8370365;28;19928;-68
2022/04/29 08:23:12;;;;;;;;;;;12.30;79.90;;;;;;8355496;28;19925;-68
2022/04/29 08:27:14;;;;;;;;;;;12.40;80.00;;;;;;8353928;28;19920;-65
2022/04/29 08:31:21;;;;;;;;;;;12.50;80.50;;;;;;8356337;28;19921;-68
2022/04/29 08:35:23;;;;;;;;;;;12.70;80.80;;;;;;8355273;28;20062;-68
2022/04/29 08:39:24;;;;;;;;;;;12.90;81.40;;;;;;8360704;28;19924;-68
2022/04/29 08:43:26;;;;;;;;;;;13.00;81.50;;;;;;8357636;28;20236;-68
2022/04/29 08:47:29;;;;;;;;;;;13.00;81.50;;;;;;8355969;28;19925;-68
2022/04/29 08:51:30;;;;;;;;;;;13.00;81.10;;;;;;8356024;28;19925;-68
2022/04/29 09:00:00;;;;;;;;;;;12.80;80.40;;;;;;8357225;28;19920;-68
2022/04/29 09:04:02;;;;;;;;;;;12.70;80.50;;;;;;8358782;28;19921;-68
2022/04/29 09:08:04;;;;;;;;;;;12.60;80.30;;;;;;8355031;28;20034;-68
2022/04/29 09:12:13;;;;;;;;;;;12.60;80.50;;;;;;8352878;28;19921;-68
2022/04/29 09:16:14;;;;;;;;;;;12.60;80.30;;;;;;8352863;28;19939;-68
2022/04/29 09:20:21;;;;;;;;;;;12.60;80.80;;;;;;8356237;28;19921;-68
2022/04/29 09:24:23;;;;;;;;;;;12.60;80.90;;;;;;8352772;28;19928;-68
2022/04/29 09:28:25;;;;;;;;;;;12.60;81.10;;;;;;8362439;28;19936;-68
2022/04/29 09:32:50;;;;;;;;;;;12.60;80.80;;;;;;8357040;28;19931;-68
2022/04/29 09:36:52;;;;;;;;;;;12.70;80.90;;;;;;8358895;28;20377;-68
2022/04/29 09:40:54;;;;;;;;;;;12.70;81.30;;;;;;8357035;28;20276;-68
2022/04/29 09:44:56;;;;;;;;;;;12.80;81.50;;;;;;8351678;28;19928;-68
2022/04/29 09:49:08;;;;;;;;;;;12.90;81.80;;;;;;8352196;28;19936;-68
2022/04/29 09:53:17;;;;;;;;;;;13.00;82.00;;;;;;8354308;28;20272;-68
2022/04/29 09:57:23;;;;;;;;;;;13.10;82.60;;;;;;8352324;28;19920;-68
2022/04/29 10:01:25;;;;;;;;;;;13.20;82.80;;;;;;8358915;28;20007;-68
2022/04/29 10:05:27;;;;;;;;;;;13.40;82.90;;;;;;8364400;28;20808;-68
2022/04/29 10:09:31;;;;;;;;;;;13.50;83.10;;;;;;8352619;28;19920;-68
2022/04/29 10:13:33;;;;;;;;;;;13.60;83.70;;;;;;8352906;28;19944;-68
2022/04/29 10:21:57;;;;;;;;;;;13.80;84.20;;;;;;8356211;28;19921;-68
2022/04/29 10:26:01;;;;;;;;;;;13.90;84.50;;;;;;8351452;28;19987;-68
2022/04/29 10:30:03;;;;;;;;;;;14.00;84.80;;;;;;8364663;28;19920;-68
2022/04/29 10:34:25;;;;;;;;;;;14.20;85.00;;;;;;8353893;28;19960;-66
2022/04/29 10:38:31;;;;;;;;;;;14.20;84.80;;;;;;8351537;28;20031;-68
2022/04/29 10:42:52;;;;;;;;;;;14.30;85.20;;;;;;8354676;28;19925;-68
2022/04/29 10:46:54;;;;;;;;;;;14.30;85.10;;;;;;8367254;28;20292;-68
2022/04/29 10:50:56;;;;;;;;;;;14.30;84.90;;;;;;8358586;28;19935;-68
2022/04/29 10:54:58;;;;;;;;;;;14.30;84.90;;;;;;8366069;28;19920;-68
2022/04/29 10:59:12;;;;;;;;;;;14.30;85.20;;;;;;8364502;28;19921;-68
2022/04/29 11:03:32;;;;;;;;;;;14.40;85.10;;;;;;8362137;28;19928;-68
2022/04/29 11:07:41;;;;;;;;;;;14.40;84.90;;;;;;8388958;28;20412;-68
2022/04/29 11:11:43;;;;;;;;;;;14.40;85.00;;;;;;8362149;28;20280;-68
2022/04/29 11:15:45;;;;;;;;;;;14.40;84.90;;;;;;8355891;28;19928;-68
2022/04/29 11:19:48;;;;;;;;;;;14.40;84.70;;;;;;8392877;28;19950;-68
2022/04/29 11:28:15;;;;;;;;;;;14.30;84.50;;;;;;8357630;28;19925;-66
2022/04/29 11:32:24;;;;;;;;;;;14.30;84.30;;;;;;8359139;28;20156;-66
2022/04/29 11:36:26;;;;;;;;;;;14.30;84.40;;;;;;8360839;28;19964;-66
2022/04/29 11:40:28;;;;;;;;;;;14.30;84.30;;;;;;8372318;28;19920;-66
2022/04/29 11:44:33;;;;;;;;;;;14.30;84.10;;;;;;8358300;28;19932;-66
2022/04/29 11:48:36;;;;;;;;;;;14.30;84.00;;;;;;8356422;28;20380;-68
2022/04/29 11:52:39;;;;;;;;;;;14.20;84.00;;;;;;8358689;28;19928;-68
2022/04/29 11:56:40;;;;;;;;;;;14.20;83.80;;;;;;8355972;28;19932;-68
2022/04/29 12:00:48;;;;;;;;;;;14.30;84.00;;;;;;8357722;28;19928;-68
2022/04/29 12:04:53;;;;;;;;;;;14.40;84.40;;;;;;8354856;28;19941;-66
2022/04/29 12:08:55;;;;;;;;;;;14.50;84.90;;;;;;8355811;28;19928;-66
2022/04/29 12:12:58;;;;;;;;;;;14.60;85.00;;;;;;8356695;28;19928;-66
2022/04/29 12:16:59;;;;;;;;;;;14.70;85.40;;;;;;8357065;28;19924;-66
2022/04/29 12:21:01;;;;;;;;;;;14.80;85.60;;;;;;8358697;28;19939;-66
2022/04/29 12:25:44;;;;;;;;;;;15.00;86.10;;;;;;8359587;28;19921;-66
2022/04/29 12:34:48;;;;;;;;;;;15.30;87.30;;;;;;8291092;28;20337;-66
2022/04/29 12:38:40;;;;;;;;;;;16.00;89.00;;;;;;8354501;28;19943;-66
2022/04/29 12:42:42;;;;;;;;;;;16.30;89.50;;;;;;8362895;28;19932;-66
2022/04/29 12:46:44;;;;;;;;;;;16.50;89.90;;;;;;8357542;28;19925;-66
2022/04/29 12:50:46;;;;;;;;;;;16.70;90.00;;;;;;8359686;28;20364;-66
2022/04/29 12:54:47;;;;;;;;;;;16.80;90.10;;;;;;8354280;28;19929;-66
2022/04/29 12:58:49;;;;;;;;;;;17.00;90.10;;;;;;8355870;28;20361;-66
2022/04/29 13:02:58;;;;;;;;;;;17.00;90.00;;;;;;8357878;28;20368;-66
2022/04/29 13:07:00;;;;;;;;;;;17.00;90.00;;;;;;8355331;28;19931;-66
2022/04/29 13:11:03;;;;;;;;;;;16.80;89.70;;;;;;8359100;28;19921;-66
2022/04/29 13:15:05;;;;;;;;;;;16.80;89.60;;;;;;8354209;28;19920;-66
2022/04/29 13:19:07;;;;;;;;;;;16.90;89.70;;;;;;8358502;28;19928;-66
2022/04/29 13:23:12;;;;;;;;;;;17.00;89.70;;;;;;8356202;28;19931;-66
2022/04/29 13:27:14;;;;;;;;;;;17.10;90.00;;;;;;8390704;28;19921;-66
2022/04/29 13:31:16;;;;;;;;;;;17.30;90.10;;;;;;8355256;28;19927;-66
2022/04/29 13:35:18;;;;;;;;;;;17.40;90.10;;;;;;8354538;28;19956;-66
2022/04/29 13:39:19;;;;;;;;;;;17.60;90.00;;;;;;8357140;28;19931;-66
2022/04/29 13:43:21;;;;;;;;;;;17.60;89.50;;;;;;8360522;28;19924;-66
2022/04/29 13:47:24;;;;;;;;;;;17.80;90.00;;;;;;8359261;28;20144;-66
2022/04/29 13:51:25;;;;;;;;;;;18.00;90.60;;;;;;8358149;28;19921;-66
2022/04/29 13:55:27;;;;;;;;;;;18.20;91.00;;;;;;8364243;28;19928;-66
2022/04/29 13:59:30;;;;;;;;;;;18.70;91.60;;;;;;8355561;28;19935;-66
2022/04/29 14:03:31;;;;;;;;;;;19.20;92.50;;;;;;8358421;28;19931;-66
2022/04/29 14:07:33;;;;;;;;;;;19.40;92.80;;;;;;8355893;28;19924;-66
2022/04/29 14:11:35;;;;;;;;;;;19.50;92.90;;;;;;8354915;28;19921;-66
2022/04/29 14:15:38;;;;;;;;;;;19.60;92.80;;;;;;8367958;28;19925;-66
2022/04/29 14:19:39;;;;;;;;;;;19.90;93.30;;;;;;8372420;28;19924;-66
2022/04/29 14:23:41;;;;;;;;;;;20.10;93.40;;;;;;8373298;28;19943;-66
2022/04/29 14:27:44;;;;;;;;;;;20.10;93.20;;;;;;8359152;28;19928;-68
2022/04/29 14:31:45;;;;;;;4.63;2.63;;;20.00;93.10;;;;;;8374024;28;20444;-66
2022/04/29 14:35:49;;;;;;;;;;;19.90;92.60;;;;;;8372206;28;20040;-66
2022/04/29 14:39:51;;;;;;;;;;;19.70;92.20;;;;;;8373145;28;19927;-66
2022/04/29 14:43:53;;;;;;;;;;;19.60;92.10;;;;;;8371308;28;19929;-66
2022/04/29 14:48:19;;;;;;;;;;;19.50;91.70;;;;;;8373588;28;19920;-66
2022/04/29 14:52:21;;;;;;;;;;;19.30;91.00;;;;;;8406858;27;19931;-66
2022/04/29 14:56:23;;;;;;;;;;;19.10;90.60;;;;;;8373804;28;20397;-66
2022/04/29 15:00:24;;;;;;;;;;;19.00;90.30;;;;;;8372689;28;20222;-66
2022/04/29 15:04:26;;;;;;;;;;;19.10;90.50;;;;;;8375232;28;19920;-66
2022/04/29 15:08:28;;;;;;;;;;;19.40;90.70;;;;;;8377145;28;20300;-66
2022/04/29 15:16:55;;;;;;;;;;;20.20;91.40;;;;;;8366591;28;19920;-66
2022/04/29 15:20:56;;;;;;;;;;;20.50;92.10;;;;;;8384603;28;19944;-66
2022/04/29 15:24:58;;;;;;;;;;;20.70;92.50;;;;;;8381616;28;19920;-66
2022/04/29 15:29:00;;;;;;;;;;;21.00;93.20;;;;;;8373602;28;19924;-66
2022/04/29 15:33:02;;;;;;;;;;;21.30;93.50;;;;;;8377351;28;19920;-66
2022/04/29 15:37:05;;;;;;;;;;;21.50;93.40;;;;;;8374073;28;19925;-66
2022/04/29 15:41:07;;;;;;;;;;;21.80;93.50;;;;;;8373044;28;19921;-66
2022/04/29 15:45:10;;;;;;;;;;;22.30;93.60;;;;;;8376769;28;19927;-66
2022/04/29 15:49:11;;;;;;;;;;;22.80;94.10;;;;;;8368770;28;19924;-66
2022/04/29 15:53:17;;;;;;;;;;;23.20;95.00;;;;;;8378069;28;19940;-66
2022/04/29 15:57:19;;;;;;;;;;;23.50;95.80;;;;;;8378350;28;19920;-66
2022/04/29 16:01:20;;;;;;;;;;;23.80;96.40;;;;;;8371627;28;19928;-66
2022/04/29 16:05:22;;;;;;;;;;;23.90;96.80;;;;;;8374766;28;19920;-66
2022/04/29 16:09:25;;;;;;;;;;;24.00;96.50;;;;;;8374754;28;19924;-66
2022/04/29 16:13:27;;;;;;;;;;;23.80;95.90;;;;;;8379682;28;19921;-66
2022/04/29 16:21:48;;;;;;;;;;;23.30;94.10;;;;;;8374533;28;19943;-66
2022/04/29 16:25:52;;;;;;;;;;;22.90;93.10;;;;;;8366740;28;19925;-66
2022/04/29 16:29:53;;;;;;;;;;;22.70;92.50;;;;;;8374051;28;19927;-66
2022/04/29 16:33:57;;;;;;;;;;;22.60;91.70;;;;;;8368984;28;19920;-66
2022/04/29 16:37:59;;;;;;;;;;;22.50;91.30;;;;;;8370832;28;19920;-66
2022/04/29 16:42:02;;;;;;;;;;;22.40;90.80;;;;;;8369133;28;19921;-66
2022/04/29 16:46:04;;;;;;;;;;;22.10;90.00;;;;;;8370229;28;19936;-66
2022/04/29 16:50:06;;;;;;;;;;;21.80;88.10;;;;;;8373327;28;19928;-66
2022/04/29 16:54:08;;;;;;;;;;;21.20;85.60;;;;;;8372735;28;19932;-66
2022/04/29 17:02:31;;;;;;;;;;;20.10;81.30;;;;;;8363608;28;25063;-66
2022/04/29 17:06:33;;;;;;;;;;;19.60;79.60;;;;;;8363835;28;20273;-66
2022/04/29 17:10:35;;;;;;;;;;;19.20;78.40;;;;;;8358254;28;20391;-66
2022/04/29 17:14:36;;;;;;;5.35;2.47;;;18.80;77.50;;;;;;8348535;28;19925;-66
2022/04/29 17:18:38;;;;;;;;;;;18.60;76.90;;;;;;8354895;28;20045;-66
2022/04/29 17:22:40;;;;;;;;;;;18.50;76.30;;;;;;8389030;28;20376;-66
2022/04/29 17:26:41;;;;;;;;;;;18.30;75.70;;;;;;8350432;28;20359;-66
2022/04/29 17:30:43;;;;;;;;;;;18.30;75.60;;;;;;8354966;28;19921;-66
2022/04/29 17:34:45;;;;;;;;;;;18.40;75.70;;;;;;8355134;28;19924;-66
2022/04/29 17:38:47;;;;;;;;;;;18.60;75.70;;;;;;8376559;28;19959;-66
2022/04/29 17:42:48;;;;;;;;;;;18.80;75.50;;;;;;8357834;28;19936;-66
2022/04/29 17:46:50;;;;;;;;;;;18.90;75.30;;;;;;8355241;28;19931;-66
2022/04/29 17:50:52;;;;;;;;;;;18.90;74.90;;;;;;8355507;28;19932;-66
2022/04/29 17:54:53;;;;;;;;;;;18.90;74.90;;;;;;8355535;28;19928;-66
2022/04/29 17:58:55;;;;;;;;;;;18.90;74.60;;;;;;8366527;28;19924;-66
2022/04/29 18:02:57;;;;;;;;;;;18.70;73.80;;;;;;8398662;27;19920;-66
2022/04/29 18:06:59;;;;;;;;;;;18.30;73.10;;;;;;8360478;28;19928;-66
2022/04/29 18:11:00;;;;;;;;;;;17.90;72.20;;;;;;8363506;28;21980;-66
2022/04/29 18:15:03;;;;;;;;;;;17.50;71.70;;;;;;8362304;28;19925;-66
2022/04/29 18:19:05;;;;;;;;;;;17.20;71.20;;;;;;8352765;28;20284;-68
2022/04/29 18:23:07;;;;;;;;;;;16.90;70.60;;;;;;8394022;28;20077;-68
2022/04/29 18:27:08;;;;;;;;;;;16.60;70.00;;;;;;8361285;28;20376;-68
2022/04/29 18:31:10;;;;;;;;;;;16.40;69.70;;;;;;8358444;28;19950;-71
2022/04/29 18:35:13;;;;;;;;;;;16.10;69.30;;;;;;8375007;28;19926;-68
2022/04/29 18:39:14;;;;;;;;;;;16.00;69.00;;;;;;8377702;28;20395;-68
2022/04/29 18:43:16;;;;;;;;;;;15.90;68.70;;;;;;8367774;28;19959;-68
2022/04/29 18:47:18;;;;;;;;;;;15.70;68.30;;;;;;8367048;28;19921;-68
2022/04/29 18:51:19;;;;;;;;;;;15.60;68.00;;;;;;8374841;28;19924;-68
2022/04/29 18:55:21;;;;;;;;;;;15.40;67.80;;;;;;8368956;28;22165;-68
2022/04/29 18:59:23;;;;;;;;;;;15.30;67.90;;;;;;8375540;28;19924;-66
2022/04/29 19:03:25;;;;;;;;;;;15.10;67.40;;;;;;8377324;28;19931;-66
2022/04/29 19:07:26;;;;;;;;;;;15.00;67.70;;;;;;8392820;27;20010;-66
2022/04/29 19:11:28;;;;;;;;;;;14.90;67.40;;;;;;8370457;28;19944;-66
2022/04/29 19:15:30;;;;;;;;;;;14.80;67.50;;;;;;8371291;28;19924;-68
2022/04/29 19:19:31;;;;;;;;;;;14.70;67.40;;;;;;8370799;28;19924;-68
2022/04/29 19:23:33;;;;;;;;;;;14.60;67.40;;;;;;8372366;28;19920;-68
2022/04/29 19:27:42;;;;;;;;;;;14.50;67.40;;;;;;8368325;28;19955;-68
2022/04/29 19:31:45;;;;;;;;;;;14.40;67.20;;;;;;8400924;27;20384;-68
2022/04/29 19:35:47;;;;;;;;;;;14.30;67.20;;;;;;8369625;28;19924;-68
2022/04/29 19:39:49;;;;;;;;;;;14.30;67.40;;;;;;8375048;28;19921;-68
2022/04/29 19:43:52;;;;;;;;;;;14.20;67.60;;;;;;8366664;28;19943;-68
2022/04/29 19:47:54;;;;;;;3.35;1.65;;;14.10;67.40;;;;;;8369425;28;19921;-68
2022/04/29 19:51:56;;;;;;;3.40;1.60;;;14.10;67.60;;;;;;8377117;28;20044;-68
2022/04/29 19:55:57;;;;;;;3.20;1.40;;;14.00;67.70;;;;;;8370414;28;20063;-68
2022/04/29 19:59:59;;;;;;;3.90;1.80;;;13.90;67.70;;;;;;8374284;28;20373;-68
2022/04/29 20:04:01;;;;;;;3.53;1.67;;;13.80;67.60;;;;;;8402029;27;20049;-68
2022/04/29 20:08:35;;;;;;;3.75;1.58;;;13.80;67.60;;;;;;8358368;28;20060;-68
2022/04/29 20:12:38;;;;;;;;;;;13.70;67.60;;;;;;8370160;28;20045;-68
2022/04/29 20:16:39;;;;;;;;;;;13.60;67.50;;;;;;8367202;28;19920;-68
2022/04/29 20:20:42;;;;;;;;;;;13.60;67.40;;;;;;8376269;28;19975;-68
2022/04/29 20:24:43;;;;;;;;;;;13.50;67.30;;;;;;8367629;28;19929;-68
2022/04/29 20:28:45;;;;;;;;;;;13.40;67.30;;;;;;8367769;28;19921;-68
2022/04/29 20:32:47;;;;;;;;;;;13.40;67.30;;;;;;8374971;28;19931;-68
2022/04/29 20:36:49;;;;;;;;;;;13.40;67.50;;;;;;8392773;27;19943;-68
2022/04/29 20:45:11;;;;;;;;;;;13.30;67.30;;;;;;8364487;28;19930;-65
2022/04/29 20:49:13;;;;;;;;;;;13.20;67.30;;;;;;8369362;28;19932;-66
2022/04/29 20:53:15;;;;;;;;;;;13.20;67.40;;;;;;8370312;28;19932;-65
2022/04/29 20:57:17;;;;;;;;;;;13.10;67.40;;;;;;8363667;28;20313;-66
2022/04/29 21:01:19;;;;;;;;;;;13.00;67.50;;;;;;8366723;28;19927;-65
2022/04/29 21:05:21;;;;;;;;;;;13.00;67.60;;;;;;8373932;28;19928;-65
2022/04/29 21:09:23;;;;;;;;;;;12.90;67.40;;;;;;8369604;28;19921;-66
2022/04/29 21:13:25;;;;;;;;;;;12.90;67.30;;;;;;8379653;28;19921;-65
2022/04/29 21:17:27;;;;;;;;;;;12.80;67.20;;;;;;8374960;28;20315;-66
2022/04/29 21:21:29;;;;;;;;;;;12.80;67.20;;;;;;8363289;28;19942;-65
2022/04/29 21:25:31;;;;;;;;;;;12.70;67.10;;;;;;8367753;28;19920;-65
2022/04/29 21:33:53;;;;;;;;;;;12.60;68.00;;;;;;8401102;28;19920;-65
2022/04/29 21:37:54;;;;;;;;;;;12.50;67.20;;;;;;8381685;28;19943;-66
2022/04/29 21:41:56;;;;;;;;;;;12.40;67.20;;;;;;8372260;28;20264;-66
2022/04/29 21:45:58;;;;;;;;;;;12.40;67.00;;;;;;8383693;28;19920;-66
2022/04/29 21:50:00;;;;;;;;;;;12.30;67.10;;;;;;8383408;28;19920;-68
2022/04/29 21:54:02;;;;;;;;;;;12.20;66.60;;;;;;8390699;28;20043;-68
2022/04/29 21:58:03;;;;;;;;;;;12.10;66.60;;;;;;8389587;28;20261;-68
2022/04/29 22:02:05;;;;;;;;;;;12.00;67.10;;;;;;8371794;28;19925;-68
2022/04/29 22:06:09;;;;;;;;;;;11.90;66.90;;;;;;8391088;28;19920;-68
2022/04/29 22:10:12;;;;;;;;;;;11.90;67.10;;;;;;8371671;28;20648;-68
2022/04/29 22:14:14;;;;;;;;;;;11.80;67.10;;;;;;8372280;28;19928;-68
2022/04/29 22:18:15;;;;;;;;;;;11.80;67.40;;;;;;8376764;28;19920;-68
2022/04/29 22:22:17;;;;;;;;;;;11.70;67.10;;;;;;8370639;28;19935;-68
2022/04/29 22:26:19;;;;;;;;;;;11.60;67.20;;;;;;8379206;28;19927;-68
2022/04/29 22:30:20;;;;;;;;;;;11.50;67.20;;;;;;8390158;28;19943;-68
2022/04/29 22:34:22;;;;;;;;;;;11.50;67.30;;;;;;8379766;28;19924;-68
2022/04/29 22:38:24;;;;;;;;;;;11.40;67.60;;;;;;8405538;28;19921;-68
2022/04/29 22:42:26;;;;;;;;;;;11.30;67.30;;;;;;8391306;28;19921;-68
2022/04/29 22:46:28;;;;;;;;;;;11.30;67.30;;;;;;8385249;28;20288;-68
2022/04/29 22:50:29;;;;;;;;;;;11.20;67.60;;;;;;8385394;28;19920;-68
2022/04/29 22:54:34;;;;;;;;;;;11.20;67.80;;;;;;8391709;28;19920;-68
2022/04/29 22:58:37;;;;;;;;;;;11.10;67.40;;;;;;8394117;28;19928;-68
2022/04/29 23:02:38;;;;;;;;;;;11.10;67.70;;;;;;8383427;28;19920;-68
2022/04/29 23:06:40;;;;;;;;;;;11.10;67.60;;;;;;8396681;28;19939;-68
2022/04/29 23:10:42;;;;;;;;;;;11.00;67.80;;;;;;8388245;28;19924;-68
2022/04/29 23:14:47;;;;;;;;;;;10.90;67.70;;;;;;8393580;28;19924;-68
2022/04/29 23:23:12;;;;;;;;;;;10.80;67.90;;;;;;8390640;28;19932;-68
2022/04/29 23:27:16;;;;;;;;;;;10.80;68.00;;;;;;8377495;28;20371;-68
2022/04/29 23:31:18;;;;;;;;;;;10.80;67.60;;;;;;8381307;28;20364;-66
2022/04/29 23:35:20;;;;;;;;;;;10.70;68.10;;;;;;8397713;28;19942;-66
2022/04/29 23:39:21;;;;;;;;;;;10.70;67.70;;;;;;8411573;28;20532;-65
2022/04/29 23:43:23;;;;;;;;;;;10.60;68.00;;;;;;8387361;28;19927;-66
2022/04/29 23:47:25;;;;;;;;;;;10.60;68.30;;;;;;8377143;28;19920;-65
2022/04/29 23:51:26;;;;;;;;;;;10.50;68.20;;;;;;8393655;28;19931;-66